Monday, October 16, 2017, 8:14 PM EDT
Back to Local

KMPO, Mt Pocono Pocono Mountains

Location: Pocono Summit, PA, United States Lat: 41.133
Local Time: 8:14 PM EDT ( 0:14 GMT) Lon: -75.383
Time Zone: US/Eastern Elev: 1915 ft

Show me the last for .
Show Decoded

2017-10-16 19:53 METAR KMPO 162353Z AUTO 35008KT 10SM CLR 05/01 A3014 RMK AO2 SLP218 T00500006
                 10100 20050 53019 =
2017-10-16 18:53 METAR KMPO 162253Z AUTO VRB05KT 10SM CLR 06/00 A3011 RMK AO2 SLP207 T00560000 =
2017-10-16 17:53 METAR KMPO 162153Z AUTO 32010G20KT 10SM CLR 08/M01 A3009 RMK AO2 PK WND
                 32027/2112 SLP198 T00781006 =
2017-10-16 16:53 METAR KMPO 162053Z AUTO 32013G24KT 10SM CLR 08/M01 A3008 RMK AO2 PK WND
                 32026/2041 SLP193 T00831011 53014 =
2017-10-16 15:53 METAR KMPO 161953Z AUTO 34011G20KT 10SM BKN032 09/02 A3007 RMK AO2 PK WND
                 31032/1924 SLP186 T00890022 =
2017-10-16 14:53 METAR KMPO 161853Z AUTO 32015G27KT 10SM SCT028 09/02 A3004 RMK AO2 PK WND
                 32029/1832 SLP176 T00890017 =
2017-10-16 14:50 METAR KMPO 161850Z AUTO 32020G27KT 10SM SCT028 09/02 A3004 RMK AO2 PK WND
                 32029/1832 =
2017-10-16 14:33 METAR KMPO 161833Z AUTO 33018G29KT 10SM BKN026 09/03 A3004 RMK AO2 PK WND
                 32029/1832 T00940028 =
2017-10-16 14:19 METAR KMPO 161819Z AUTO 31015G25KT 10SM SCT024 09/03 A3003 RMK AO2 PK WND
                 31026/1756 T00890028 =
2017-10-16 13:53 METAR KMPO 161753Z AUTO 31018G27KT 10SM BKN023 08/03 A3004 RMK AO2 PK WND
                 31031/1724 SLP175 T00780028 10083 20061 51006 =
2017-10-16 12:53 METAR KMPO 161653Z AUTO 33011G28KT 10SM OVC021 08/03 A3004 RMK AO2 PK WND
                 34028/1644 SLP174 T00780033 =
2017-10-16 11:53 METAR KMPO 161553Z AUTO 31013G24KT 10SM OVC021 07/03 A3006 RMK AO2 PK WND
                 31033/1509 SLP183 T00720028 =
2017-10-16 11:42 METAR KMPO 161542Z AUTO 32009G24KT 290V360 10SM BKN020 07/03 A3005 RMK AO2 PK
                 WND 31033/1509 T00720028 =
2017-10-16 11:16 METAR KMPO 161516Z AUTO 31018G33KT 10SM SCT019 08/03 A3003 RMK AO2 PK WND
                 31033/1509 T00780028 =
2017-10-16 10:53 METAR KMPO 161453Z AUTO 32019G27KT 10SM OVC019 08/03 A3002 RMK AO2 PK WND
                 31029/1434 SLP166 T00780033 51014 =
2017-10-16 09:53 METAR KMPO 161353Z AUTO 33017G31KT 10SM OVC019 07/03 A3001 RMK AO2 PK WND
                 33031/1349 SLP165 T00670028 =
2017-10-16 08:53 METAR KMPO 161253Z AUTO 33014G23KT 10SM OVC020 06/03 A3002 RMK AO2 SLP167
                 T00610033 =
2017-10-16 07:53 METAR KMPO 161153Z AUTO 31013G21KT 10SM BKN018 OVC024 07/04 A2998 RMK AO2 SLP153
                 60002 70018 T00670044 10133 20067 51022 =
2017-10-16 06:53 METAR KMPO 161053Z AUTO 32011G19KT 10SM BKN018 08/06 A2997 RMK AO2 SLP150
                 T00780056 =
2017-10-16 06:45 METAR KMPO 161045Z AUTO 32009G20KT 10SM BKN018 08/06 A2997 RMK AO2 T00780056 =
2017-10-16 06:33 METAR KMPO 161033Z AUTO 31016G23KT 10SM SCT020 08/06 A2997 RMK AO2 PRESRR
                 T00780056 =
2017-10-16 06:05 METAR KMPO 161005Z AUTO 33016G25KT 10SM BKN018 BKN023 09/07 A2993 RMK AO2
                 T00890067 =
2017-10-16 05:53 METAR KMPO 160953Z AUTO 32011G22KT 10SM FEW018 09/07 A2994 RMK AO2 PRESRR SLP138
                 T00940067 =
2017-10-16 05:33 METAR KMPO 160933Z AUTO 32012G24KT 10SM SCT021 09/07 A2992 RMK AO2 T00940067 =
2017-10-16 05:22 METAR KMPO 160922Z AUTO 32013G25KT 10SM BKN021 10/07 A2992 RMK AO2 T01000072 =
2017-10-16 04:53 METAR KMPO 160853Z AUTO 33014G23KT 10SM FEW120 11/07 A2991 RMK AO2 SLP127 60002
                 T01060072 50006 =
2017-10-16 04:29 METAR KMPO 160829Z AUTO 32011G22KT 10SM FEW026 BKN035 OVC120 11/08 A2989 RMK AO2
                 T01060078 =
2017-10-16 03:53 METAR KMPO 160753Z AUTO 32013G21KT 10SM BKN019 OVC120 12/09 A2991 RMK AO2 SLP127
                 T01170089 =
2017-10-16 03:46 METAR KMPO 160746Z AUTO 33013G19KT 10SM BKN017 OVC120 12/10 A2990 RMK AO2
                 T01170100 =
2017-10-16 02:53 METAR KMPO 160653Z AUTO 31007KT 10SM FEW019 SCT025 OVC100 13/12 A2990 RMK AO2
                 RAE36 SLP123 P0002 T01280122 =
2017-10-16 01:53 METAR KMPO 160553Z AUTO 30007KT 10SM -RA FEW019 SCT029 OVC085 13/13 A2989 RMK
                 AO2 RAB02 SLP120 P0000 60016 T01330128 10172 20133 53008 =
2017-10-16 01:11 METAR KMPO 160511Z AUTO 31012G19KT 10SM -RA FEW011 BKN065 OVC080 14/12 A2988 RMK
                 AO2 RAB02 P0000 T01390122 =
2017-10-16 00:53 METAR KMPO 160453Z AUTO 30007KT 10SM SCT010 BKN019 OVC080 15/14 A2988 RMK AO2
                 RAE32 SLP113 P0001 T01500144 401720122 =
2017-10-16 00:27 METAR KMPO 160427Z AUTO 29007KT 10SM -RA BKN010 BKN033 OVC080 15/15 A2987 RMK
                 AO2 P0001 T01500150 =
2017-10-15 23:53 METAR KMPO 160353Z AUTO 30009G18KT 10SM -RA FEW009 BKN055 OVC070 16/15 A2987 RMK
                 AO2 PK WND 29027/0302 RAE45B51 SLP109 P0013 T01560150 =
2017-10-15 23:49 METAR KMPO 160349Z AUTO 30011KT 10SM FEW008 BKN055 OVC070 16/15 A2987 RMK AO2 PK
                 WND 29027/0302 RAE45 P0013 =
2017-10-15 23:41 METAR KMPO 160341Z AUTO 30012G17KT 10SM -RA SCT008 BKN027 OVC070 16/16 A2986 RMK
                 AO2 PK WND 29027/0302 P0013 T01610156 =
2017-10-15 23:20 METAR KMPO 160320Z AUTO 27012KT 10SM -RA FEW006 BKN030 OVC070 16/16 A2986 RMK
                 AO2 PK WND 29027/0302 P0013 T01610161 =
2017-10-15 23:12 METAR KMPO 160312Z AUTO 28012G24KT 8SM -RA SCT006 BKN019 OVC047 17/16 A2986 RMK
                 AO2 PK WND 29027/0302 P0013 T01670161 =
2017-10-15 23:06 METAR KMPO 160306Z AUTO 28015G27KT 2 1/2SM RA BR BKN006 OVC021 17/17 A2986 RMK
                 AO2 PK WND 29027/0302 P0012 T01720167 =
2017-10-15 22:53 METAR KMPO 160253Z AUTO 27009G18KT 4SM RA BR OVC006 17/17 A2985 RMK AO2 RAB34
                 CIG 005V010 SLP103 P0002 60002 T01720172 55002 =
2017-10-15 21:53 METAR KMPO 160153Z AUTO 23013KT 9SM OVC005 17/17 A2984 RMK AO2 SLP099 T01720167
                 =
2017-10-15 21:32 METAR KMPO 160132Z AUTO 22010G19KT 10SM OVC005 17/17 A2984 RMK AO2 T01670167 =
2017-10-15 20:53 METAR KMPO 160053Z AUTO 22012KT 8SM OVC003 16/16 A2985 RMK AO2 SLP103 T01610161
                 =

Support USWX by starting your Amazon purchase here.